sensor_id;sensor_type;location;lat;lon;timestamp;P1;durP1;ratioP1;P2;durP2;ratioP2
16407;SDS011;8313;49.894;8.084;2023-04-24T00:00:03;1.40;;;0.80;;
16407;SDS011;8313;49.894;8.084;2023-04-24T00:02:34;1.53;;;0.80;;
16407;SDS011;8313;49.894;8.084;2023-04-24T00:05:03;0.93;;;0.90;;
16407;SDS011;8313;49.894;8.084;2023-04-24T00:07:32;1.50;;;1.23;;
16407;SDS011;8313;49.894;8.084;2023-04-24T00:09:58;0.80;;;0.80;;
16407;SDS011;8313;49.894;8.084;2023-04-24T00:12:25;1.20;;;0.97;;
16407;SDS011;8313;49.894;8.084;2023-04-24T00:14:52;0.83;;;0.83;;
16407;SDS011;8313;49.894;8.084;2023-04-24T00:17:18;2.33;;;1.50;;
16407;SDS011;8313;49.894;8.084;2023-04-24T00:19:46;1.80;;;1.03;;
16407;SDS011;8313;49.894;8.084;2023-04-24T00:22:12;1.17;;;1.17;;
16407;SDS011;8313;49.894;8.084;2023-04-24T00:24:38;0.83;;;0.83;;
16407;SDS011;8313;49.894;8.084;2023-04-24T00:27:04;0.90;;;0.90;;
16407;SDS011;8313;49.894;8.084;2023-04-24T00:29:30;2.93;;;0.90;;
16407;SDS011;8313;49.894;8.084;2023-04-24T00:31:56;4.57;;;1.03;;
16407;SDS011;8313;49.894;8.084;2023-04-24T00:34:21;0.70;;;0.70;;
16407;SDS011;8313;49.894;8.084;2023-04-24T00:36:47;0.70;;;0.70;;
16407;SDS011;8313;49.894;8.084;2023-04-24T00:39:17;1.20;;;1.10;;
16407;SDS011;8313;49.894;8.084;2023-04-24T00:41:46;3.37;;;1.10;;
16407;SDS011;8313;49.894;8.084;2023-04-24T00:44:13;1.53;;;1.20;;
16407;SDS011;8313;49.894;8.084;2023-04-24T00:46:40;0.73;;;0.70;;
16407;SDS011;8313;49.894;8.084;2023-04-24T00:49:06;1.00;;;1.00;;
16407;SDS011;8313;49.894;8.084;2023-04-24T00:51:32;0.73;;;0.73;;
16407;SDS011;8313;49.894;8.084;2023-04-24T00:53:58;1.00;;;1.00;;
16407;SDS011;8313;49.894;8.084;2023-04-24T00:56:24;0.90;;;0.90;;
16407;SDS011;8313;49.894;8.084;2023-04-24T00:58:50;1.47;;;1.20;;
16407;SDS011;8313;49.894;8.084;2023-04-24T01:01:16;2.63;;;1.70;;
16407;SDS011;8313;49.894;8.084;2023-04-24T01:03:45;1.10;;;1.00;;
16407;SDS011;8313;49.894;8.084;2023-04-24T01:06:11;2.10;;;1.37;;
16407;SDS011;8313;49.894;8.084;2023-04-24T01:08:37;1.90;;;1.00;;
16407;SDS011;8313;49.894;8.084;2023-04-24T01:11:04;1.20;;;1.03;;
16407;SDS011;8313;49.894;8.084;2023-04-24T01:13:31;3.40;;;1.20;;
16407;SDS011;8313;49.894;8.084;2023-04-24T01:15:57;1.57;;;1.10;;
16407;SDS011;8313;49.894;8.084;2023-04-24T01:18:23;1.90;;;1.00;;
16407;SDS011;8313;49.894;8.084;2023-04-24T01:20:50;1.20;;;1.10;;
16407;SDS011;8313;49.894;8.084;2023-04-24T01:23:18;1.20;;;1.07;;
16407;SDS011;8313;49.894;8.084;2023-04-24T01:25:44;1.23;;;1.13;;
16407;SDS011;8313;49.894;8.084;2023-04-24T01:28:10;1.20;;;1.10;;
16407;SDS011;8313;49.894;8.084;2023-04-24T01:30:37;0.93;;;0.87;;
16407;SDS011;8313;49.894;8.084;2023-04-24T01:33:03;1.07;;;0.97;;
16407;SDS011;8313;49.894;8.084;2023-04-24T01:35:29;1.10;;;1.00;;
16407;SDS011;8313;49.894;8.084;2023-04-24T01:37:55;1.20;;;1.10;;
16407;SDS011;8313;49.894;8.084;2023-04-24T01:40:20;1.43;;;1.20;;
16407;SDS011;8313;49.894;8.084;2023-04-24T01:42:46;3.73;;;1.20;;
16407;SDS011;8313;49.894;8.084;2023-04-24T01:45:12;1.10;;;1.00;;
16407;SDS011;8313;49.894;8.084;2023-04-24T01:47:38;1.30;;;1.20;;
16407;SDS011;8313;49.894;8.084;2023-04-24T01:50:04;2.47;;;1.10;;
16407;SDS011;8313;49.894;8.084;2023-04-24T01:52:31;1.53;;;1.10;;
16407;SDS011;8313;49.894;8.084;2023-04-24T01:55:01;1.10;;;1.00;;
16407;SDS011;8313;49.894;8.084;2023-04-24T01:57:28;1.20;;;1.10;;
16407;SDS011;8313;49.894;8.084;2023-04-24T01:59:55;1.67;;;1.30;;
16407;SDS011;8313;49.894;8.084;2023-04-24T02:02:21;4.00;;;0.97;;
16407;SDS011;8313;49.894;8.084;2023-04-24T02:04:49;1.47;;;1.10;;
16407;SDS011;8313;49.894;8.084;2023-04-24T02:07:17;2.00;;;1.10;;
16407;SDS011;8313;49.894;8.084;2023-04-24T02:09:43;1.00;;;1.00;;
16407;SDS011;8313;49.894;8.084;2023-04-24T02:12:09;1.40;;;1.30;;
16407;SDS011;8313;49.894;8.084;2023-04-24T02:14:34;3.60;;;1.20;;
16407;SDS011;8313;49.894;8.084;2023-04-24T02:17:02;2.30;;;1.10;;
16407;SDS011;8313;49.894;8.084;2023-04-24T02:19:28;1.37;;;1.20;;
16407;SDS011;8313;49.894;8.084;2023-04-24T02:21:53;1.13;;;1.10;;
16407;SDS011;8313;49.894;8.084;2023-04-24T02:24:19;1.63;;;1.10;;
16407;SDS011;8313;49.894;8.084;2023-04-24T02:26:45;1.53;;;1.27;;
16407;SDS011;8313;49.894;8.084;2023-04-24T02:29:10;1.23;;;1.20;;
16407;SDS011;8313;49.894;8.084;2023-04-24T02:31:36;1.50;;;1.17;;
16407;SDS011;8313;49.894;8.084;2023-04-24T02:34:01;1.27;;;1.17;;
16407;SDS011;8313;49.894;8.084;2023-04-24T02:36:27;2.57;;;1.47;;
16407;SDS011;8313;49.894;8.084;2023-04-24T02:38:53;1.87;;;1.27;;
16407;SDS011;8313;49.894;8.084;2023-04-24T02:41:19;1.00;;;1.00;;
16407;SDS011;8313;49.894;8.084;2023-04-24T02:43:44;1.37;;;1.20;;
16407;SDS011;8313;49.894;8.084;2023-04-24T02:46:10;1.10;;;1.00;;
16407;SDS011;8313;49.894;8.084;2023-04-24T02:48:36;2.17;;;1.53;;
16407;SDS011;8313;49.894;8.084;2023-04-24T02:51:02;1.00;;;1.00;;
16407;SDS011;8313;49.894;8.084;2023-04-24T02:53:28;2.23;;;1.03;;
16407;SDS011;8313;49.894;8.084;2023-04-24T02:55:55;0.90;;;0.90;;
16407;SDS011;8313;49.894;8.084;2023-04-24T02:58:22;1.27;;;1.17;;
16407;SDS011;8313;49.894;8.084;2023-04-24T03:00:47;2.20;;;1.40;;
16407;SDS011;8313;49.894;8.084;2023-04-24T03:03:13;1.13;;;1.03;;
16407;SDS011;8313;49.894;8.084;2023-04-24T03:05:40;2.53;;;1.40;;
16407;SDS011;8313;49.894;8.084;2023-04-24T03:08:06;1.20;;;1.10;;
16407;SDS011;8313;49.894;8.084;2023-04-24T03:10:31;1.20;;;1.20;;
16407;SDS011;8313;49.894;8.084;2023-04-24T03:12:57;1.20;;;1.10;;
16407;SDS011;8313;49.894;8.084;2023-04-24T03:15:23;4.23;;;1.43;;
16407;SDS011;8313;49.894;8.084;2023-04-24T03:17:48;1.40;;;1.30;;
16407;SDS011;8313;49.894;8.084;2023-04-24T03:20:14;1.10;;;1.00;;
16407;SDS011;8313;49.894;8.084;2023-04-24T03:22:40;1.57;;;1.47;;
16407;SDS011;8313;49.894;8.084;2023-04-24T03:25:07;1.50;;;1.40;;
16407;SDS011;8313;49.894;8.084;2023-04-24T03:27:36;1.20;;;0.97;;
16407;SDS011;8313;49.894;8.084;2023-04-24T03:30:07;1.60;;;1.50;;
16407;SDS011;8313;49.894;8.084;2023-04-24T03:32:42;1.30;;;1.20;;
16407;SDS011;8313;49.894;8.084;2023-04-24T03:35:10;1.43;;;1.33;;
16407;SDS011;8313;49.894;8.084;2023-04-24T03:37:36;1.43;;;1.33;;
16407;SDS011;8313;49.894;8.084;2023-04-24T03:40:22;1.73;;;1.40;;
16407;SDS011;8313;49.894;8.084;2023-04-24T03:42:48;1.60;;;1.50;;
16407;SDS011;8313;49.894;8.084;2023-04-24T03:45:13;2.30;;;2.07;;
16407;SDS011;8313;49.894;8.084;2023-04-24T03:47:42;2.10;;;1.90;;
16407;SDS011;8313;49.894;8.084;2023-04-24T03:50:08;1.70;;;1.60;;
16407;SDS011;8313;49.894;8.084;2023-04-24T03:52:34;2.83;;;1.77;;
16407;SDS011;8313;49.894;8.084;2023-04-24T03:55:00;2.93;;;1.67;;
16407;SDS011;8313;49.894;8.084;2023-04-24T03:57:26;2.33;;;2.07;;
16407;SDS011;8313;49.894;8.084;2023-04-24T04:00:04;2.27;;;2.07;;
16407;SDS011;8313;49.894;8.084;2023-04-24T04:02:39;1.87;;;1.63;;
16407;SDS011;8313;49.894;8.084;2023-04-24T04:05:05;2.53;;;2.10;;
16407;SDS011;8313;49.894;8.084;2023-04-24T04:07:31;1.77;;;1.67;;
16407;SDS011;8313;49.894;8.084;2023-04-24T04:09:57;1.60;;;1.50;;
16407;SDS011;8313;49.894;8.084;2023-04-24T04:12:22;1.80;;;1.70;;
16407;SDS011;8313;49.894;8.084;2023-04-24T04:14:48;2.60;;;2.40;;
16407;SDS011;8313;49.894;8.084;2023-04-24T04:17:14;1.97;;;1.87;;
16407;SDS011;8313;49.894;8.084;2023-04-24T04:19:41;2.90;;;2.50;;
16407;SDS011;8313;49.894;8.084;2023-04-24T04:22:07;2.33;;;1.97;;
16407;SDS011;8313;49.894;8.084;2023-04-24T04:24:39;1.80;;;1.70;;
16407;SDS011;8313;49.894;8.084;2023-04-24T04:27:06;2.47;;;1.90;;
16407;SDS011;8313;49.894;8.084;2023-04-24T04:29:40;3.27;;;2.20;;
16407;SDS011;8313;49.894;8.084;2023-04-24T04:32:09;2.23;;;2.03;;
16407;SDS011;8313;49.894;8.084;2023-04-24T04:34:35;2.47;;;2.00;;
16407;SDS011;8313;49.894;8.084;2023-04-24T04:37:03;2.30;;;2.10;;
16407;SDS011;8313;49.894;8.084;2023-04-24T04:39:48;2.73;;;2.40;;
16407;SDS011;8313;49.894;8.084;2023-04-24T04:42:18;2.30;;;2.10;;
16407;SDS011;8313;49.894;8.084;2023-04-24T04:44:44;2.17;;;1.97;;
16407;SDS011;8313;49.894;8.084;2023-04-24T04:47:16;4.23;;;2.67;;
16407;SDS011;8313;49.894;8.084;2023-04-24T04:49:43;2.20;;;2.00;;
16407;SDS011;8313;49.894;8.084;2023-04-24T04:52:16;2.17;;;1.93;;
16407;SDS011;8313;49.894;8.084;2023-04-24T04:54:44;3.10;;;2.70;;
16407;SDS011;8313;49.894;8.084;2023-04-24T04:57:11;2.20;;;2.00;;
16407;SDS011;8313;49.894;8.084;2023-04-24T04:59:38;6.50;;;2.43;;
16407;SDS011;8313;49.894;8.084;2023-04-24T05:02:08;2.27;;;1.93;;
16407;SDS011;8313;49.894;8.084;2023-04-24T05:04:35;3.27;;;2.70;;
16407;SDS011;8313;49.894;8.084;2023-04-24T05:07:01;2.57;;;2.37;;
16407;SDS011;8313;49.894;8.084;2023-04-24T05:09:30;2.67;;;2.47;;
16407;SDS011;8313;49.894;8.084;2023-04-24T05:12:00;2.50;;;2.30;;
16407;SDS011;8313;49.894;8.084;2023-04-24T05:14:29;2.57;;;2.10;;
16407;SDS011;8313;49.894;8.084;2023-04-24T05:16:56;3.00;;;2.43;;
16407;SDS011;8313;49.894;8.084;2023-04-24T05:19:24;3.43;;;2.60;;
16407;SDS011;8313;49.894;8.084;2023-04-24T05:21:50;2.73;;;2.53;;
16407;SDS011;8313;49.894;8.084;2023-04-24T05:24:16;2.77;;;2.57;;
16407;SDS011;8313;49.894;8.084;2023-04-24T05:26:44;3.00;;;2.70;;
16407;SDS011;8313;49.894;8.084;2023-04-24T05:29:12;6.13;;;3.27;;
16407;SDS011;8313;49.894;8.084;2023-04-24T05:31:38;3.10;;;2.40;;
16407;SDS011;8313;49.894;8.084;2023-04-24T05:34:04;3.40;;;2.67;;
16407;SDS011;8313;49.894;8.084;2023-04-24T05:36:30;4.00;;;3.23;;
16407;SDS011;8313;49.894;8.084;2023-04-24T05:38:57;3.33;;;3.03;;
16407;SDS011;8313;49.894;8.084;2023-04-24T05:41:22;3.37;;;3.07;;
16407;SDS011;8313;49.894;8.084;2023-04-24T05:43:48;2.53;;;2.23;;
16407;SDS011;8313;49.894;8.084;2023-04-24T05:46:14;3.40;;;3.10;;
16407;SDS011;8313;49.894;8.084;2023-04-24T05:48:39;4.00;;;3.60;;
16407;SDS011;8313;49.894;8.084;2023-04-24T05:51:05;3.30;;;3.00;;
16407;SDS011;8313;49.894;8.084;2023-04-24T05:53:31;3.87;;;2.90;;
16407;SDS011;8313;49.894;8.084;2023-04-24T05:55:57;3.37;;;3.07;;
16407;SDS011;8313;49.894;8.084;2023-04-24T05:58:23;4.10;;;2.87;;
16407;SDS011;8313;49.894;8.084;2023-04-24T06:00:49;3.73;;;3.33;;
16407;SDS011;8313;49.894;8.084;2023-04-24T06:03:16;5.63;;;3.27;;
16407;SDS011;8313;49.894;8.084;2023-04-24T06:05:41;3.87;;;3.47;;
16407;SDS011;8313;49.894;8.084;2023-04-24T06:08:07;4.17;;;3.77;;
16407;SDS011;8313;49.894;8.084;2023-04-24T06:10:37;3.67;;;2.77;;
16407;SDS011;8313;49.894;8.084;2023-04-24T06:13:04;5.20;;;3.70;;
16407;SDS011;8313;49.894;8.084;2023-04-24T06:15:33;3.83;;;3.23;;
16407;SDS011;8313;49.894;8.084;2023-04-24T06:18:06;4.87;;;4.43;;
16407;SDS011;8313;49.894;8.084;2023-04-24T06:20:33;4.30;;;3.87;;
16407;SDS011;8313;49.894;8.084;2023-04-24T06:23:00;5.33;;;3.77;;
16407;SDS011;8313;49.894;8.084;2023-04-24T06:25:26;4.23;;;3.50;;
16407;SDS011;8313;49.894;8.084;2023-04-24T06:27:55;7.30;;;3.90;;
16407;SDS011;8313;49.894;8.084;2023-04-24T06:30:21;6.93;;;4.70;;
16407;SDS011;8313;49.894;8.084;2023-04-24T06:32:46;5.30;;;4.10;;
16407;SDS011;8313;49.894;8.084;2023-04-24T06:35:14;4.67;;;3.97;;
16407;SDS011;8313;49.894;8.084;2023-04-24T06:37:40;4.60;;;3.40;;
16407;SDS011;8313;49.894;8.084;2023-04-24T06:40:07;5.30;;;3.50;;
16407;SDS011;8313;49.894;8.084;2023-04-24T06:42:33;6.70;;;3.70;;
16407;SDS011;8313;49.894;8.084;2023-04-24T06:45:02;5.20;;;3.83;;
16407;SDS011;8313;49.894;8.084;2023-04-24T06:47:29;6.37;;;4.10;;
16407;SDS011;8313;49.894;8.084;2023-04-24T06:49:54;4.43;;;3.70;;
16407;SDS011;8313;49.894;8.084;2023-04-24T06:52:20;7.70;;;4.53;;
16407;SDS011;8313;49.894;8.084;2023-04-24T06:54:46;4.90;;;4.03;;
16407;SDS011;8313;49.894;8.084;2023-04-24T06:57:12;5.27;;;4.30;;
16407;SDS011;8313;49.894;8.084;2023-04-24T06:59:37;5.17;;;3.87;;
16407;SDS011;8313;49.894;8.084;2023-04-24T07:02:03;5.27;;;4.23;;
16407;SDS011;8313;49.894;8.084;2023-04-24T07:04:29;5.90;;;3.83;;
16407;SDS011;8313;49.894;8.084;2023-04-24T07:06:55;3.90;;;3.40;;
16407;SDS011;8313;49.894;8.084;2023-04-24T07:09:25;3.40;;;3.10;;
16407;SDS011;8313;49.894;8.084;2023-04-24T07:11:52;3.87;;;3.40;;
16407;SDS011;8313;49.894;8.084;2023-04-24T07:14:18;4.77;;;4.17;;
16407;SDS011;8313;49.894;8.084;2023-04-24T07:16:45;3.73;;;2.93;;
16407;SDS011;8313;49.894;8.084;2023-04-24T07:19:12;3.30;;;3.00;;
16407;SDS011;8313;49.894;8.084;2023-04-24T07:21:38;3.03;;;2.77;;
16407;SDS011;8313;49.894;8.084;2023-04-24T07:24:05;5.17;;;3.17;;
16407;SDS011;8313;49.894;8.084;2023-04-24T07:26:34;4.13;;;3.23;;
16407;SDS011;8313;49.894;8.084;2023-04-24T07:29:00;5.00;;;3.70;;
16407;SDS011;8313;49.894;8.084;2023-04-24T07:31:25;4.43;;;3.33;;
16407;SDS011;8313;49.894;8.084;2023-04-24T07:33:51;4.73;;;3.60;;
16407;SDS011;8313;49.894;8.084;2023-04-24T07:36:17;4.07;;;3.50;;
16407;SDS011;8313;49.894;8.084;2023-04-24T07:38:46;4.50;;;3.27;;
16407;SDS011;8313;49.894;8.084;2023-04-24T07:41:12;4.07;;;2.60;;
16407;SDS011;8313;49.894;8.084;2023-04-24T07:43:38;4.13;;;3.63;;
16407;SDS011;8313;49.894;8.084;2023-04-24T07:46:04;3.00;;;2.70;;
16407;SDS011;8313;49.894;8.084;2023-04-24T07:48:31;2.63;;;2.40;;
16407;SDS011;8313;49.894;8.084;2023-04-24T07:50:57;5.30;;;3.43;;
16407;SDS011;8313;49.894;8.084;2023-04-24T07:53:22;2.57;;;2.37;;
16407;SDS011;8313;49.894;8.084;2023-04-24T07:55:48;2.57;;;2.37;;
16407;SDS011;8313;49.894;8.084;2023-04-24T07:58:14;3.00;;;2.70;;
16407;SDS011;8313;49.894;8.084;2023-04-24T08:00:40;2.77;;;2.57;;
16407;SDS011;8313;49.894;8.084;2023-04-24T08:03:05;3.10;;;2.53;;
16407;SDS011;8313;49.894;8.084;2023-04-24T08:05:31;3.00;;;2.70;;
16407;SDS011;8313;49.894;8.084;2023-04-24T08:07:57;7.73;;;2.50;;
16407;SDS011;8313;49.894;8.084;2023-04-24T08:10:23;5.10;;;2.53;;
16407;SDS011;8313;49.894;8.084;2023-04-24T08:12:50;3.40;;;2.97;;
16407;SDS011;8313;49.894;8.084;2023-04-24T08:15:15;2.87;;;2.40;;
16407;SDS011;8313;49.894;8.084;2023-04-24T08:17:42;2.60;;;2.40;;
16407;SDS011;8313;49.894;8.084;2023-04-24T08:20:08;3.90;;;2.63;;
16407;SDS011;8313;49.894;8.084;2023-04-24T08:22:39;3.20;;;2.90;;
16407;SDS011;8313;49.894;8.084;2023-04-24T08:25:08;4.10;;;3.23;;
16407;SDS011;8313;49.894;8.084;2023-04-24T08:27:36;2.97;;;2.37;;
16407;SDS011;8313;49.894;8.084;2023-04-24T08:30:02;3.50;;;2.40;;
16407;SDS011;8313;49.894;8.084;2023-04-24T08:32:28;3.67;;;2.83;;
16407;SDS011;8313;49.894;8.084;2023-04-24T08:34:57;5.63;;;2.57;;
16407;SDS011;8313;49.894;8.084;2023-04-24T08:37:24;3.33;;;2.80;;
16407;SDS011;8313;49.894;8.084;2023-04-24T08:39:50;3.17;;;2.70;;
16407;SDS011;8313;49.894;8.084;2023-04-24T08:42:17;3.70;;;2.87;;
16407;SDS011;8313;49.894;8.084;2023-04-24T08:44:43;3.10;;;2.53;;
16407;SDS011;8313;49.894;8.084;2023-04-24T08:47:10;2.43;;;2.23;;
16407;SDS011;8313;49.894;8.084;2023-04-24T08:49:36;2.50;;;2.30;;
16407;SDS011;8313;49.894;8.084;2023-04-24T08:52:02;3.87;;;2.73;;
16407;SDS011;8313;49.894;8.084;2023-04-24T08:54:29;4.17;;;2.57;;
16407;SDS011;8313;49.894;8.084;2023-04-24T08:56:58;2.87;;;2.53;;
16407;SDS011;8313;49.894;8.084;2023-04-24T08:59:26;3.53;;;3.10;;
16407;SDS011;8313;49.894;8.084;2023-04-24T09:01:52;3.80;;;2.67;;
16407;SDS011;8313;49.894;8.084;2023-04-24T09:04:20;2.50;;;2.30;;
16407;SDS011;8313;49.894;8.084;2023-04-24T09:06:51;2.40;;;2.20;;
16407;SDS011;8313;49.894;8.084;2023-04-24T09:09:20;3.60;;;2.00;;
16407;SDS011;8313;49.894;8.084;2023-04-24T09:11:49;2.50;;;2.30;;
16407;SDS011;8313;49.894;8.084;2023-04-24T09:14:15;2.13;;;1.93;;
16407;SDS011;8313;49.894;8.084;2023-04-24T09:16:42;2.30;;;1.90;;
16407;SDS011;8313;49.894;8.084;2023-04-24T09:19:07;3.70;;;1.97;;
16407;SDS011;8313;49.894;8.084;2023-04-24T09:21:33;2.23;;;2.03;;
16407;SDS011;8313;49.894;8.084;2023-04-24T09:24:00;1.70;;;1.60;;
16407;SDS011;8313;49.894;8.084;2023-04-24T09:26:30;4.10;;;2.67;;
16407;SDS011;8313;49.894;8.084;2023-04-24T09:28:57;2.17;;;1.97;;
16407;SDS011;8313;49.894;8.084;2023-04-24T09:31:24;2.10;;;1.90;;
16407;SDS011;8313;49.894;8.084;2023-04-24T09:33:54;2.60;;;2.20;;
16407;SDS011;8313;49.894;8.084;2023-04-24T09:36:26;1.70;;;1.60;;
16407;SDS011;8313;49.894;8.084;2023-04-24T09:38:55;3.87;;;2.03;;
16407;SDS011;8313;49.894;8.084;2023-04-24T09:41:23;3.53;;;2.13;;
16407;SDS011;8313;49.894;8.084;2023-04-24T09:43:49;2.33;;;2.00;;
16407;SDS011;8313;49.894;8.084;2023-04-24T09:46:15;3.20;;;2.30;;
16407;SDS011;8313;49.894;8.084;2023-04-24T09:48:43;4.90;;;2.17;;
16407;SDS011;8313;49.894;8.084;2023-04-24T09:51:09;1.70;;;1.60;;
16407;SDS011;8313;49.894;8.084;2023-04-24T09:53:38;2.20;;;2.00;;
16407;SDS011;8313;49.894;8.084;2023-04-24T09:56:11;2.17;;;2.00;;
16407;SDS011;8313;49.894;8.084;2023-04-24T09:58:38;2.00;;;1.80;;
16407;SDS011;8313;49.894;8.084;2023-04-24T10:01:04;3.20;;;2.10;;
16407;SDS011;8313;49.894;8.084;2023-04-24T10:03:30;2.83;;;2.03;;
16407;SDS011;8313;49.894;8.084;2023-04-24T10:06:00;2.50;;;2.30;;
16407;SDS011;8313;49.894;8.084;2023-04-24T10:08:26;2.47;;;1.93;;
16407;SDS011;8313;49.894;8.084;2023-04-24T10:10:59;2.00;;;1.80;;
16407;SDS011;8313;49.894;8.084;2023-04-24T10:13:26;2.30;;;1.90;;
16407;SDS011;8313;49.894;8.084;2023-04-24T10:15:52;2.13;;;2.03;;
16407;SDS011;8313;49.894;8.084;2023-04-24T10:18:19;2.50;;;2.20;;
16407;SDS011;8313;49.894;8.084;2023-04-24T10:20:46;1.97;;;1.87;;
16407;SDS011;8313;49.894;8.084;2023-04-24T10:23:12;2.53;;;1.70;;
16407;SDS011;8313;49.894;8.084;2023-04-24T10:25:38;2.40;;;1.97;;
16407;SDS011;8313;49.894;8.084;2023-04-24T10:28:04;2.67;;;1.87;;
16407;SDS011;8313;49.894;8.084;2023-04-24T10:30:31;2.30;;;2.10;;
16407;SDS011;8313;49.894;8.084;2023-04-24T10:33:05;2.47;;;1.93;;
16407;SDS011;8313;49.894;8.084;2023-04-24T10:35:34;2.10;;;2.00;;
16407;SDS011;8313;49.894;8.084;2023-04-24T10:38:05;2.03;;;1.83;;
16407;SDS011;8313;49.894;8.084;2023-04-24T10:40:34;1.57;;;1.47;;
16407;SDS011;8313;49.894;8.084;2023-04-24T10:43:04;1.67;;;1.57;;
16407;SDS011;8313;49.894;8.084;2023-04-24T10:45:33;1.90;;;1.70;;
16407;SDS011;8313;49.894;8.084;2023-04-24T10:47:59;2.13;;;1.90;;
16407;SDS011;8313;49.894;8.084;2023-04-24T10:50:46;2.23;;;2.03;;
16407;SDS011;8313;49.894;8.084;2023-04-24T10:53:16;2.83;;;2.10;;
16407;SDS011;8313;49.894;8.084;2023-04-24T10:58:10;1.47;;;1.37;;
16407;SDS011;8313;49.894;8.084;2023-04-24T11:00:37;2.33;;;1.77;;
16407;SDS011;8313;49.894;8.084;2023-04-24T11:03:05;1.43;;;1.30;;
16407;SDS011;8313;49.894;8.084;2023-04-24T11:06:07;2.30;;;1.73;;
16407;SDS011;8313;49.894;8.084;2023-04-24T11:08:43;2.13;;;1.30;;
16407;SDS011;8313;49.894;8.084;2023-04-24T11:19:02;1.50;;;1.40;;
16407;SDS011;8313;49.894;8.084;2023-04-24T11:21:31;1.60;;;1.50;;
16407;SDS011;8313;49.894;8.084;2023-04-24T11:26:54;1.57;;;1.47;;
16407;SDS011;8313;49.894;8.084;2023-04-24T11:29:22;1.47;;;1.37;;
16407;SDS011;8313;49.894;8.084;2023-04-24T11:31:48;4.57;;;1.60;;
16407;SDS011;8313;49.894;8.084;2023-04-24T11:34:16;1.73;;;1.50;;
16407;SDS011;8313;49.894;8.084;2023-04-24T11:36:43;1.90;;;1.70;;
16407;SDS011;8313;49.894;8.084;2023-04-24T11:39:13;2.37;;;2.17;;
16407;SDS011;8313;49.894;8.084;2023-04-24T11:41:39;2.40;;;2.20;;
16407;SDS011;8313;49.894;8.084;2023-04-24T11:44:09;2.07;;;1.93;;
16407;SDS011;8313;49.894;8.084;2023-04-24T11:46:36;3.23;;;2.80;;
16407;SDS011;8313;49.894;8.084;2023-04-24T11:49:02;5.60;;;3.10;;
16407;SDS011;8313;49.894;8.084;2023-04-24T11:51:28;2.87;;;2.60;;
16407;SDS011;8313;49.894;8.084;2023-04-24T11:53:54;2.57;;;2.33;;
16407;SDS011;8313;49.894;8.084;2023-04-24T11:56:21;3.67;;;2.93;;
16407;SDS011;8313;49.894;8.084;2023-04-24T11:58:48;4.07;;;2.73;;
16407;SDS011;8313;49.894;8.084;2023-04-24T12:01:13;4.43;;;3.37;;
16407;SDS011;8313;49.894;8.084;2023-04-24T12:03:40;9.57;;;3.20;;
16407;SDS011;8313;49.894;8.084;2023-04-24T12:06:09;5.30;;;3.20;;
16407;SDS011;8313;49.894;8.084;2023-04-24T12:08:36;3.57;;;3.00;;
16407;SDS011;8313;49.894;8.084;2023-04-24T12:11:03;5.43;;;3.13;;
16407;SDS011;8313;49.894;8.084;2023-04-24T12:13:30;4.07;;;3.60;;
16407;SDS011;8313;49.894;8.084;2023-04-24T12:15:56;3.50;;;3.20;;
16407;SDS011;8313;49.894;8.084;2023-04-24T12:18:23;4.07;;;3.30;;
16407;SDS011;8313;49.894;8.084;2023-04-24T12:20:49;2.90;;;2.70;;
16407;SDS011;8313;49.894;8.084;2023-04-24T12:23:15;3.27;;;2.97;;
16407;SDS011;8313;49.894;8.084;2023-04-24T12:25:42;4.57;;;3.00;;
16407;SDS011;8313;49.894;8.084;2023-04-24T12:28:09;8.10;;;3.60;;
16407;SDS011;8313;49.894;8.084;2023-04-24T12:30:43;4.53;;;3.40;;
16407;SDS011;8313;49.894;8.084;2023-04-24T12:33:17;4.30;;;3.50;;
16407;SDS011;8313;49.894;8.084;2023-04-24T12:35:43;3.90;;;2.67;;
16407;SDS011;8313;49.894;8.084;2023-04-24T12:38:09;3.60;;;3.00;;
16407;SDS011;8313;49.894;8.084;2023-04-24T12:40:37;6.37;;;3.10;;
16407;SDS011;8313;49.894;8.084;2023-04-24T12:43:13;4.80;;;2.93;;
16407;SDS011;8313;49.894;8.084;2023-04-24T12:45:40;5.83;;;3.60;;
16407;SDS011;8313;49.894;8.084;2023-04-24T12:48:06;5.43;;;3.80;;
16407;SDS011;8313;49.894;8.084;2023-04-24T12:50:32;4.53;;;3.60;;
16407;SDS011;8313;49.894;8.084;2023-04-24T12:52:57;3.53;;;3.23;;
16407;SDS011;8313;49.894;8.084;2023-04-24T12:55:23;4.80;;;3.63;;
16407;SDS011;8313;49.894;8.084;2023-04-24T12:57:48;4.57;;;3.93;;
16407;SDS011;8313;49.894;8.084;2023-04-24T13:00:14;3.53;;;2.63;;
16407;SDS011;8313;49.894;8.084;2023-04-24T13:02:40;5.57;;;3.07;;
16407;SDS011;8313;49.894;8.084;2023-04-24T13:05:06;6.07;;;4.40;;
16407;SDS011;8313;49.894;8.084;2023-04-24T13:07:32;5.40;;;4.90;;
16407;SDS011;8313;49.894;8.084;2023-04-24T13:09:58;4.67;;;4.27;;
16407;SDS011;8313;49.894;8.084;2023-04-24T13:12:23;5.07;;;4.10;;
16407;SDS011;8313;49.894;8.084;2023-04-24T13:14:50;8.23;;;3.77;;
16407;SDS011;8313;49.894;8.084;2023-04-24T13:17:16;4.50;;;4.10;;
16407;SDS011;8313;49.894;8.084;2023-04-24T13:19:43;7.13;;;3.63;;
16407;SDS011;8313;49.894;8.084;2023-04-24T13:22:09;11.40;;;6.85;;
16407;SDS011;8313;49.894;8.084;2023-04-24T13:24:36;9.10;;;7.70;;
16407;SDS011;8313;49.894;8.084;2023-04-24T13:27:03;4.67;;;4.00;;
16407;SDS011;8313;49.894;8.084;2023-04-24T13:29:28;5.30;;;3.50;;
16407;SDS011;8313;49.894;8.084;2023-04-24T13:31:54;4.87;;;3.60;;
16407;SDS011;8313;49.894;8.084;2023-04-24T13:34:21;3.17;;;2.87;;
16407;SDS011;8313;49.894;8.084;2023-04-24T13:36:51;3.30;;;3.00;;
16407;SDS011;8313;49.894;8.084;2023-04-24T13:39:21;3.07;;;2.70;;
16407;SDS011;8313;49.894;8.084;2023-04-24T13:41:48;4.83;;;3.27;;
16407;SDS011;8313;49.894;8.084;2023-04-24T13:44:14;4.97;;;4.00;;
16407;SDS011;8313;49.894;8.084;2023-04-24T13:46:41;5.57;;;4.90;;
16407;SDS011;8313;49.894;8.084;2023-04-24T13:49:08;6.73;;;4.23;;
16407;SDS011;8313;49.894;8.084;2023-04-24T13:51:34;5.30;;;4.80;;
16407;SDS011;8313;49.894;8.084;2023-04-24T13:54:00;9.77;;;3.50;;
16407;SDS011;8313;49.894;8.084;2023-04-24T13:56:26;4.30;;;3.00;;
16407;SDS011;8313;49.894;8.084;2023-04-24T13:58:51;3.33;;;2.50;;
16407;SDS011;8313;49.894;8.084;2023-04-24T14:01:19;7.53;;;3.70;;
16407;SDS011;8313;49.894;8.084;2023-04-24T14:03:45;6.07;;;3.60;;
16407;SDS011;8313;49.894;8.084;2023-04-24T14:06:11;5.00;;;3.70;;
16407;SDS011;8313;49.894;8.084;2023-04-24T14:08:37;6.20;;;3.00;;
16407;SDS011;8313;49.894;8.084;2023-04-24T14:11:02;3.67;;;3.30;;
16407;SDS011;8313;49.894;8.084;2023-04-24T14:13:28;3.33;;;3.03;;
16407;SDS011;8313;49.894;8.084;2023-04-24T14:15:54;3.20;;;2.90;;
16407;SDS011;8313;49.894;8.084;2023-04-24T14:18:20;3.60;;;3.30;;
16407;SDS011;8313;49.894;8.084;2023-04-24T14:20:46;4.43;;;4.00;;
16407;SDS011;8313;49.894;8.084;2023-04-24T14:23:11;5.13;;;3.73;;
16407;SDS011;8313;49.894;8.084;2023-04-24T14:25:37;3.37;;;3.07;;
16407;SDS011;8313;49.894;8.084;2023-04-24T14:28:03;4.13;;;3.73;;
16407;SDS011;8313;49.894;8.084;2023-04-24T14:30:28;5.10;;;3.33;;
16407;SDS011;8313;49.894;8.084;2023-04-24T14:32:54;3.63;;;3.17;;
16407;SDS011;8313;49.894;8.084;2023-04-24T14:35:20;9.23;;;4.47;;
16407;SDS011;8313;49.894;8.084;2023-04-24T14:37:45;3.47;;;3.17;;
16407;SDS011;8313;49.894;8.084;2023-04-24T14:40:11;5.80;;;2.87;;
16407;SDS011;8313;49.894;8.084;2023-04-24T14:42:37;4.50;;;3.30;;
16407;SDS011;8313;49.894;8.084;2023-04-24T14:45:02;4.43;;;2.90;;
16407;SDS011;8313;49.894;8.084;2023-04-24T14:47:28;4.33;;;3.93;;
16407;SDS011;8313;49.894;8.084;2023-04-24T14:49:54;2.93;;;2.60;;
16407;SDS011;8313;49.894;8.084;2023-04-24T14:52:20;4.07;;;3.50;;
16407;SDS011;8313;49.894;8.084;2023-04-24T14:54:46;4.70;;;3.50;;
16407;SDS011;8313;49.894;8.084;2023-04-24T14:57:11;4.40;;;4.10;;
16407;SDS011;8313;49.894;8.084;2023-04-24T14:59:37;4.00;;;3.50;;
16407;SDS011;8313;49.894;8.084;2023-04-24T15:02:03;4.13;;;3.33;;
16407;SDS011;8313;49.894;8.084;2023-04-24T15:04:29;4.17;;;3.77;;
16407;SDS011;8313;49.894;8.084;2023-04-24T15:06:56;6.30;;;4.37;;
16407;SDS011;8313;49.894;8.084;2023-04-24T15:09:22;3.67;;;3.37;;
16407;SDS011;8313;49.894;8.084;2023-04-24T15:11:49;3.30;;;3.00;;